createdAt,value
2018-08-07T00:01:03.812Z,7.97
2018-08-07T00:03:31.451Z,8.53
2018-08-07T01:14:36.958Z,8.70
2018-08-07T01:17:04.554Z,9.50
2018-08-07T01:19:32.018Z,9.83
2018-08-07T01:21:59.598Z,11.03
2018-08-07T01:24:27.116Z,10.80
2018-08-07T01:26:54.706Z,10.80
2018-08-07T01:29:22.206Z,9.37
2018-08-07T01:31:49.737Z,10.00
2018-08-07T01:34:17.231Z,9.57
2018-08-07T01:36:44.783Z,10.10
2018-08-07T01:39:12.320Z,9.00
2018-08-07T01:41:39.836Z,11.10
2018-08-07T01:44:07.538Z,10.37
2018-08-07T01:46:35.080Z,9.17
2018-08-07T01:49:02.713Z,9.70
2018-08-07T01:51:30.327Z,10.00
2018-08-07T01:53:57.836Z,11.60
2018-08-07T01:56:25.424Z,10.20
2018-08-07T01:58:52.962Z,12.37
2018-08-07T02:01:20.456Z,10.97
2018-08-07T02:03:48.038Z,12.20
2018-08-07T02:06:15.596Z,10.00
2018-08-07T02:08:43.146Z,10.87
2018-08-07T02:11:10.664Z,11.43
2018-08-07T02:13:38.202Z,10.43
2018-08-07T02:16:05.798Z,10.33
2018-08-07T02:18:33.426Z,10.60
2018-08-07T02:21:01.053Z,10.50
2018-08-07T02:23:28.589Z,10.00
2018-08-07T02:25:56.098Z,9.90
2018-08-07T02:28:23.671Z,9.70
2018-08-07T02:30:51.252Z,10.30
2018-08-07T02:33:18.767Z,11.03
2018-08-07T02:35:46.307Z,10.23
2018-08-07T02:38:13.849Z,10.57
2018-08-07T02:40:41.400Z,10.73
2018-08-07T02:43:09.032Z,11.50
2018-08-07T02:45:36.597Z,10.73
2018-08-07T02:48:04.127Z,9.93
2018-08-07T02:50:31.699Z,11.33
2018-08-07T02:52:59.237Z,11.70
2018-08-07T02:55:26.837Z,11.30
2018-08-07T02:57:54.386Z,11.80
2018-08-07T03:00:22.808Z,10.80
2018-08-07T03:02:50.370Z,10.90
2018-08-07T03:05:19.050Z,10.80
2018-08-07T03:07:46.794Z,10.30
2018-08-07T03:10:14.284Z,11.90
2018-08-07T03:12:41.868Z,10.50
2018-08-07T03:15:16.580Z,10.70
2018-08-07T03:17:45.363Z,11.23
2018-08-07T03:20:12.929Z,10.97
2018-08-07T03:22:40.476Z,10.87
2018-08-07T03:25:09.877Z,11.93
2018-08-07T03:27:37.490Z,13.40
2018-08-07T03:30:07.781Z,12.30
2018-08-07T03:32:35.503Z,12.77
2018-08-07T03:35:03.164Z,13.00
2018-08-07T03:37:30.707Z,11.73
2018-08-07T03:39:58.209Z,11.50
2018-08-07T03:42:25.697Z,11.30
2018-08-07T03:44:53.215Z,11.50
2018-08-07T03:47:20.727Z,10.30
2018-08-07T03:49:48.259Z,11.93
2018-08-07T03:52:15.853Z,11.60
2018-08-07T03:54:43.371Z,10.40
2018-08-07T03:57:10.903Z,11.53
2018-08-07T03:59:38.422Z,11.87
2018-08-07T04:02:05.997Z,11.37
2018-08-07T04:04:33.503Z,10.90
2018-08-07T04:07:01.108Z,10.50
2018-08-07T04:09:28.656Z,11.33
2018-08-07T04:11:56.192Z,11.40
2018-08-07T04:14:23.748Z,10.23
2018-08-07T04:16:54.769Z,11.00
2018-08-07T04:19:23.535Z,10.70
2018-08-07T04:21:51.124Z,11.10
2018-08-07T04:24:18.671Z,11.13
2018-08-07T04:26:46.531Z,11.43
2018-08-07T04:29:14.081Z,10.77
2018-08-07T04:31:41.646Z,10.77
2018-08-07T04:34:09.234Z,10.53
2018-08-07T04:36:36.780Z,10.37
2018-08-07T04:39:07.350Z,10.20
2018-08-07T04:41:34.887Z,9.77
2018-08-07T04:44:02.533Z,10.43
2018-08-07T04:46:30.078Z,9.40
2018-08-07T04:48:57.608Z,9.20
2018-08-07T04:51:25.119Z,9.87
2018-08-07T04:53:52.778Z,9.50
2018-08-07T04:56:20.270Z,10.80
2018-08-07T04:58:47.788Z,10.90
2018-08-07T05:01:15.304Z,10.40
2018-08-07T05:03:42.923Z,10.20
2018-08-07T05:06:10.455Z,9.67
2018-08-07T05:08:37.959Z,9.33
2018-08-07T05:11:05.473Z,10.20
2018-08-07T05:13:33.000Z,10.40
2018-08-07T05:16:00.570Z,9.23
2018-08-07T05:18:28.088Z,8.40
2018-08-07T05:20:55.684Z,8.83
2018-08-07T05:23:23.328Z,9.10
2018-08-07T05:25:50.885Z,8.47
2018-08-07T05:28:18.342Z,9.20
2018-08-07T05:30:45.882Z,8.33
2018-08-07T05:33:13.468Z,8.90
2018-08-07T05:35:41.106Z,8.80
2018-08-07T05:38:08.743Z,8.87
2018-08-07T05:40:36.361Z,9.13
2018-08-07T05:43:03.955Z,8.50
2018-08-07T05:45:31.555Z,8.73
2018-08-07T05:47:59.132Z,8.40
2018-08-07T05:50:26.849Z,8.50
2018-08-07T05:52:54.329Z,7.97
2018-08-07T05:55:21.765Z,8.80
2018-08-07T05:57:49.316Z,7.80
2018-08-07T06:00:18.835Z,7.77
2018-08-07T06:02:47.265Z,7.80
2018-08-07T06:05:14.858Z,8.03
2018-08-07T06:07:42.472Z,8.43
2018-08-07T06:10:11.225Z,7.50
2018-08-07T06:12:38.856Z,7.67
2018-08-07T06:15:09.056Z,7.80
2018-08-07T06:17:36.994Z,7.77
2018-08-07T06:20:04.702Z,7.50
2018-08-07T06:22:32.234Z,8.10
2018-08-07T06:24:59.822Z,7.27
2018-08-07T06:27:27.387Z,6.83
2018-08-07T06:29:54.939Z,7.27
2018-08-07T06:32:22.505Z,8.13
2018-08-07T06:34:50.040Z,7.37
2018-08-07T06:37:17.571Z,8.40
2018-08-07T06:39:45.029Z,7.23
2018-08-07T06:42:12.517Z,7.27
2018-08-07T06:44:40.087Z,7.70
2018-08-07T06:47:07.719Z,7.83
2018-08-07T06:49:35.343Z,7.03
2018-08-07T06:52:02.934Z,7.70
2018-08-07T06:54:30.446Z,7.50
2018-08-07T06:56:58.075Z,8.37
2018-08-07T06:59:25.545Z,8.63
2018-08-07T07:01:53.171Z,9.53
2018-08-07T07:04:20.693Z,9.37
2018-08-07T07:06:48.255Z,9.43
2018-08-07T07:09:15.810Z,11.80
2018-08-07T07:11:43.345Z,9.40
2018-08-07T07:14:10.900Z,9.93
2018-08-07T07:16:38.416Z,11.00
2018-08-07T07:19:06.115Z,9.87
2018-08-07T07:21:33.615Z,10.03
2018-08-07T07:24:01.167Z,10.33
2018-08-07T07:26:28.770Z,10.23
2018-08-07T07:28:56.347Z,9.43
2018-08-07T07:31:23.914Z,8.97
2018-08-07T07:33:51.503Z,9.57
2018-08-07T07:36:19.134Z,9.40
2018-08-07T07:38:46.777Z,9.83
2018-08-07T07:41:14.326Z,10.67
2018-08-07T07:43:41.921Z,9.80
2018-08-07T07:46:09.531Z,8.67
2018-08-07T07:48:37.131Z,8.87
2018-08-07T07:51:04.733Z,8.90
2018-08-07T07:53:32.291Z,10.20
2018-08-07T07:55:59.895Z,9.20
2018-08-07T07:58:27.508Z,9.53
2018-08-07T08:00:55.158Z,9.63
2018-08-07T08:03:22.729Z,11.23
2018-08-07T08:05:50.256Z,9.57
2018-08-07T08:08:17.798Z,10.00
2018-08-07T08:10:45.347Z,10.77
2018-08-07T08:13:12.906Z,11.77
2018-08-07T08:15:40.558Z,10.73
2018-08-07T08:18:08.112Z,11.23
2018-08-07T08:20:35.739Z,10.57
2018-08-07T08:23:03.349Z,9.97
2018-08-07T08:25:30.980Z,9.27
2018-08-07T08:27:58.493Z,10.10
2018-08-07T08:30:26.077Z,9.20
2018-08-07T08:32:53.666Z,10.17
2018-08-07T08:35:21.293Z,11.47
2018-08-07T08:37:49.280Z,10.20
2018-08-07T08:40:18.532Z,10.83
2018-08-07T08:42:46.129Z,10.33
2018-08-07T08:45:15.346Z,9.70
2018-08-07T08:47:43.710Z,10.77
2018-08-07T08:50:13.201Z,9.77
2018-08-07T08:52:41.672Z,10.80
2018-08-07T08:55:09.860Z,10.37
2018-08-07T08:57:38.188Z,9.97
2018-08-07T09:00:37.639Z,9.50
2018-08-07T09:03:05.710Z,10.10
2018-08-07T09:05:33.440Z,9.47
2018-08-07T09:08:01.101Z,9.50
2018-08-07T09:10:30.128Z,9.13
2018-08-07T09:12:58.398Z,9.23
2018-08-07T09:15:26.006Z,10.50
2018-08-07T09:17:53.704Z,9.27
2018-08-07T09:20:24.178Z,10.90
2018-08-07T09:22:51.894Z,9.50
2018-08-07T09:25:20.382Z,9.40
2018-08-07T09:27:47.952Z,9.80
2018-08-07T09:30:17.931Z,9.77
2018-08-07T09:32:46.678Z,9.80
2018-08-07T09:35:14.961Z,8.53
2018-08-07T09:37:42.607Z,10.13
2018-08-07T09:40:12.181Z,10.83
2018-08-07T09:42:40.584Z,9.90
2018-08-07T09:45:09.744Z,10.77
2018-08-07T09:47:37.399Z,11.90
2018-08-07T09:50:05.913Z,11.37
2018-08-07T09:52:33.479Z,10.10
2018-08-07T09:55:01.051Z,9.53
2018-08-07T09:57:28.636Z,9.20
2018-08-07T09:59:56.226Z,8.80
2018-08-07T10:02:29.412Z,8.00
2018-08-07T10:04:56.989Z,8.70
2018-08-07T10:07:24.587Z,8.70
2018-08-07T10:09:52.223Z,8.77
2018-08-07T10:12:19.878Z,8.00
2018-08-07T10:14:47.465Z,8.07
2018-08-07T10:17:15.034Z,9.63
2018-08-07T10:19:42.578Z,7.27
2018-08-07T10:22:10.276Z,8.30
2018-08-07T10:24:37.979Z,8.40
2018-08-07T10:27:05.613Z,9.73
2018-08-07T10:29:33.376Z,8.40
2018-08-07T10:32:00.939Z,10.20
2018-08-07T10:34:28.551Z,9.80
2018-08-07T10:36:56.164Z,9.60
2018-08-07T10:39:23.771Z,9.80
2018-08-07T10:41:51.384Z,10.63
2018-08-07T10:44:19.045Z,10.80
2018-08-07T10:46:46.615Z,10.57
2018-08-07T10:49:14.221Z,9.60
2018-08-07T10:51:41.880Z,10.90
2018-08-07T10:54:09.523Z,11.00
2018-08-07T10:56:37.126Z,11.80
2018-08-07T10:59:04.929Z,11.40
2018-08-07T11:01:32.584Z,9.70
2018-08-07T11:04:00.155Z,10.10
2018-08-07T11:06:27.698Z,9.53
2018-08-07T11:08:55.231Z,10.00
2018-08-07T11:11:23.658Z,10.50
2018-08-07T11:13:51.285Z,9.50
2018-08-07T11:16:18.871Z,11.10
2018-08-07T11:18:46.423Z,8.90
2018-08-07T11:21:14.023Z,9.20
2018-08-07T11:23:41.544Z,9.13
2018-08-07T11:26:09.143Z,9.60
2018-08-07T11:28:36.738Z,10.07
2018-08-07T11:31:04.349Z,10.50
2018-08-07T11:33:32.038Z,9.77
2018-08-07T11:35:59.619Z,9.90
2018-08-07T11:38:27.282Z,11.07
2018-08-07T11:40:54.942Z,11.47
2018-08-07T11:43:22.470Z,12.20
2018-08-07T11:45:50.026Z,12.33
2018-08-07T11:48:17.598Z,12.90
2018-08-07T11:50:45.174Z,11.80
2018-08-07T11:53:12.767Z,11.07
2018-08-07T11:55:40.366Z,10.90
2018-08-07T11:58:08.042Z,11.50
2018-08-07T12:00:37.285Z,12.17
2018-08-07T12:03:07.666Z,13.77
2018-08-07T12:05:35.241Z,12.00
2018-08-07T12:08:02.914Z,13.03
2018-08-07T12:10:30.535Z,12.57
2018-08-07T12:12:58.248Z,14.20
2018-08-07T12:15:26.044Z,14.77
2018-08-07T12:17:54.033Z,15.90
2018-08-07T12:20:21.672Z,13.33
2018-08-07T12:22:49.282Z,14.43
2018-08-07T12:25:17.634Z,14.10
2018-08-07T12:27:45.314Z,16.13
2018-08-07T12:30:28.276Z,14.77
2018-08-07T12:32:55.990Z,14.20
2018-08-07T12:35:23.594Z,15.37
2018-08-07T12:37:51.249Z,15.27
2018-08-07T12:40:23.006Z,15.93
2018-08-07T12:42:51.693Z,14.70
2018-08-07T12:45:19.196Z,14.13
2018-08-07T12:47:47.427Z,14.77
2018-08-07T12:50:15.970Z,15.00
2018-08-07T12:52:43.569Z,15.40
2018-08-07T12:55:15.377Z,16.23
2018-08-07T12:57:43.158Z,14.80
2018-08-07T13:00:20.910Z,16.27
2018-08-07T13:02:48.591Z,16.17
2018-08-07T13:05:16.209Z,15.37
2018-08-07T13:07:43.918Z,14.70
2018-08-07T13:10:13.742Z,13.97
2018-08-07T13:12:42.334Z,14.43
2018-08-07T13:15:11.320Z,13.97
2018-08-07T13:17:38.925Z,15.43
2018-08-07T13:20:07.778Z,13.43
2018-08-07T13:22:35.902Z,13.13
2018-08-07T13:25:04.143Z,13.80
2018-08-07T13:27:31.620Z,14.43
2018-08-07T13:29:59.270Z,12.20
2018-08-07T13:32:26.872Z,11.60
2018-08-07T13:34:54.515Z,10.50
2018-08-07T13:37:22.138Z,10.20
2018-08-07T13:39:49.746Z,10.97
2018-08-07T13:42:17.432Z,9.23
2018-08-07T13:44:45.175Z,9.67
2018-08-07T13:47:12.918Z,10.13
2018-08-07T13:49:40.460Z,9.03
2018-08-07T13:52:08.120Z,9.07
2018-08-07T13:54:35.601Z,9.00
2018-08-07T13:57:03.172Z,9.80
2018-08-07T13:59:30.774Z,8.83
2018-08-07T14:01:58.368Z,8.20
2018-08-07T14:04:26.038Z,8.07
2018-08-07T14:06:53.600Z,8.23
2018-08-07T14:09:21.345Z,7.60
2018-08-07T14:11:48.976Z,8.53
2018-08-07T14:14:16.693Z,8.30
2018-08-07T14:16:44.260Z,8.50
2018-08-07T14:19:11.947Z,9.30
2018-08-07T14:21:39.527Z,8.43
2018-08-07T14:24:07.127Z,9.40
2018-08-07T14:26:34.842Z,8.53
2018-08-07T14:29:02.492Z,9.10
2018-08-07T14:31:30.149Z,8.70
2018-08-07T14:33:57.624Z,9.43
2018-08-07T14:36:25.306Z,8.43
2018-08-07T14:38:52.916Z,8.60
2018-08-07T14:41:20.605Z,8.70
2018-08-07T14:43:48.220Z,9.43
2018-08-07T14:46:15.850Z,8.50
2018-08-07T14:48:43.425Z,8.63
2018-08-07T14:51:11.080Z,8.63
2018-08-07T14:53:38.556Z,8.37
2018-08-07T14:56:06.332Z,9.03
2018-08-07T14:58:33.895Z,8.27
2018-08-07T15:01:01.561Z,8.03
2018-08-07T15:03:29.147Z,8.17
2018-08-07T15:05:56.760Z,8.30
2018-08-07T15:08:24.421Z,9.90
2018-08-07T15:10:52.145Z,8.03
2018-08-07T15:13:19.721Z,7.77
2018-08-07T15:15:47.341Z,8.43
2018-08-07T15:18:14.922Z,8.63
2018-08-07T15:20:42.716Z,8.77
2018-08-07T15:23:10.304Z,8.50
2018-08-07T15:25:38.002Z,8.43
2018-08-07T15:28:05.604Z,7.97
2018-08-07T15:30:33.270Z,8.17
2018-08-07T15:33:00.859Z,7.90
2018-08-07T15:35:29.359Z,9.10
2018-08-07T15:37:57.312Z,8.30
2018-08-07T15:40:24.954Z,8.30
2018-08-07T15:42:52.651Z,9.00
2018-08-07T15:45:21.648Z,8.10
2018-08-07T15:47:49.430Z,7.77
2018-08-07T15:50:17.994Z,7.50
2018-08-07T15:52:47.193Z,8.33
2018-08-07T15:55:17.034Z,8.50
2018-08-07T15:57:44.730Z,8.10
2018-08-07T16:00:22.730Z,8.40
2018-08-07T16:02:50.455Z,8.50
2018-08-07T16:05:18.123Z,8.97
2018-08-07T16:07:45.891Z,8.37
2018-08-07T16:10:15.701Z,8.70
2018-08-07T16:12:44.270Z,8.10
2018-08-07T16:15:11.900Z,8.33
2018-08-07T16:17:39.496Z,8.23
2018-08-07T16:20:07.813Z,8.90
2018-08-07T16:22:35.882Z,9.23
2018-08-07T16:25:03.869Z,9.00
2018-08-07T16:27:31.464Z,8.10
2018-08-07T16:29:59.123Z,8.47
2018-08-07T16:32:26.899Z,9.17
2018-08-07T16:35:01.069Z,9.30
2018-08-07T16:37:28.795Z,9.37
2018-08-07T16:39:56.380Z,9.63
2018-08-07T16:42:23.984Z,9.40
2018-08-07T16:44:51.589Z,9.13
2018-08-07T16:47:19.238Z,8.97
2018-08-07T16:49:46.938Z,9.20
2018-08-07T16:52:14.540Z,9.53
2018-08-07T16:54:42.101Z,9.50
2018-08-07T16:57:09.774Z,9.60
2018-08-07T16:59:37.380Z,9.30
2018-08-07T17:02:05.014Z,9.10
2018-08-07T17:04:32.587Z,9.53
2018-08-07T17:07:00.627Z,8.80
2018-08-07T17:09:28.342Z,9.23
2018-08-07T17:11:56.051Z,9.70
2018-08-07T17:14:23.750Z,9.43
2018-08-07T17:16:51.483Z,9.87
2018-08-07T17:19:19.151Z,9.00
2018-08-07T17:21:46.860Z,8.73
2018-08-07T17:24:14.533Z,9.30
2018-08-07T17:26:42.176Z,9.20
2018-08-07T17:29:09.806Z,8.70
2018-08-07T17:31:37.492Z,8.50
2018-08-07T17:34:05.492Z,8.73
2018-08-07T17:36:33.134Z,8.30
2018-08-07T17:39:05.358Z,7.50
2018-08-07T17:41:33.056Z,8.17
2018-08-07T17:44:00.783Z,8.20
2018-08-07T17:46:28.549Z,8.70
2018-08-07T17:48:56.266Z,8.20
2018-08-07T17:51:24.090Z,9.23
2018-08-07T17:53:52.053Z,8.70
2018-08-07T17:56:19.761Z,7.93
2018-08-07T17:58:47.360Z,8.67
2018-08-07T18:01:14.948Z,8.30
2018-08-07T18:03:43.583Z,8.67
2018-08-07T18:06:11.279Z,8.47
2018-08-07T18:08:38.922Z,8.43
2018-08-07T18:11:06.520Z,7.83
2018-08-07T18:13:35.161Z,8.93
2018-08-07T18:16:02.846Z,7.73
2018-08-07T18:18:30.409Z,8.40
2018-08-07T18:20:58.094Z,8.30
2018-08-07T18:23:25.952Z,7.83
2018-08-07T18:25:53.646Z,8.87
2018-08-07T18:28:21.327Z,8.17
2018-08-07T18:30:48.973Z,9.47
2018-08-07T18:33:16.607Z,8.90
2018-08-07T18:35:44.430Z,8.90
2018-08-07T18:38:12.189Z,9.70
2018-08-07T18:40:39.854Z,7.90
2018-08-07T18:43:07.516Z,10.27
2018-08-07T18:45:35.176Z,9.80
2018-08-07T18:48:03.226Z,9.20
2018-08-07T18:50:30.911Z,9.63
2018-08-07T18:52:58.547Z,8.60
2018-08-07T18:55:26.328Z,10.03
2018-08-07T18:57:54.005Z,9.70
2018-08-07T19:00:24.161Z,9.60
2018-08-07T19:02:51.882Z,9.17
2018-08-07T19:05:20.887Z,9.50
2018-08-07T19:07:48.514Z,9.67
2018-08-07T19:10:16.382Z,9.73
2018-08-07T19:12:45.608Z,10.00
2018-08-07T19:15:15.110Z,9.60
2018-08-07T19:17:42.940Z,9.50
2018-08-07T19:20:14.389Z,10.17
2018-08-07T19:22:42.995Z,9.40
2018-08-07T19:25:11.911Z,10.37
2018-08-07T19:27:39.853Z,9.40
2018-08-07T19:30:09.262Z,10.03
2018-08-07T19:32:37.145Z,9.30
2018-08-07T19:35:06.161Z,9.23
2018-08-07T19:37:33.912Z,10.00
2018-08-07T19:40:28.319Z,9.33
2018-08-07T19:42:56.041Z,9.73
2018-08-07T19:45:23.807Z,10.40
2018-08-07T19:47:51.516Z,9.40
2018-08-07T19:50:20.619Z,9.23
2018-08-07T19:52:48.373Z,10.50
2018-08-07T19:55:17.645Z,11.17
2018-08-07T19:57:45.364Z,11.70
2018-08-07T20:00:21.106Z,10.57
2018-08-07T20:02:49.504Z,10.60
2018-08-07T20:05:17.231Z,10.13
2018-08-07T20:07:45.120Z,10.17
2018-08-07T20:10:13.843Z,11.07
2018-08-07T20:12:41.739Z,9.70
2018-08-07T20:15:12.422Z,9.97
2018-08-07T20:17:40.539Z,9.97
2018-08-07T20:20:08.604Z,9.83
2018-08-07T20:22:36.289Z,10.67
2018-08-07T20:25:05.114Z,10.50
2018-08-07T20:27:32.870Z,10.43
2018-08-07T20:30:00.618Z,10.20
2018-08-07T20:32:28.562Z,11.83
2018-08-07T20:34:56.383Z,11.20
2018-08-07T20:37:24.104Z,12.50
2018-08-07T20:39:51.991Z,11.60
2018-08-07T20:42:19.757Z,11.30
2018-08-07T20:44:47.392Z,10.70
2018-08-07T20:47:15.163Z,10.43
2018-08-07T20:49:42.777Z,11.00
2018-08-07T20:52:10.399Z,9.80
2018-08-07T20:54:38.091Z,10.27
2018-08-07T20:57:05.762Z,10.43
2018-08-07T20:59:33.413Z,10.93
2018-08-07T21:02:01.056Z,11.90
2018-08-07T21:04:28.669Z,11.33
2018-08-07T21:06:56.279Z,11.43
2018-08-07T21:09:23.884Z,11.63
2018-08-07T21:11:51.439Z,11.40
2018-08-07T21:14:19.132Z,11.57
2018-08-07T21:16:46.767Z,10.70
2018-08-07T21:19:14.353Z,10.30
2018-08-07T21:21:41.951Z,10.17
2018-08-07T21:24:09.588Z,11.70
2018-08-07T21:26:37.196Z,11.97
2018-08-07T21:29:04.708Z,11.70
2018-08-07T21:31:32.728Z,10.73
2018-08-07T21:34:00.962Z,11.57
2018-08-07T21:36:28.542Z,11.23
2018-08-07T21:38:55.999Z,12.37
2018-08-07T21:41:23.495Z,11.80
2018-08-07T21:43:53.030Z,13.60
2018-08-07T21:46:20.632Z,11.80
2018-08-07T21:48:48.136Z,11.90
2018-08-07T21:51:15.664Z,12.97
2018-08-07T21:53:43.133Z,12.43
2018-08-07T21:56:10.650Z,11.20
2018-08-07T21:58:38.158Z,11.03
2018-08-07T22:01:05.683Z,11.33
2018-08-07T22:03:33.257Z,12.40
2018-08-07T22:06:00.867Z,11.83
2018-08-07T22:08:28.452Z,11.50
2018-08-07T22:10:55.991Z,12.30
2018-08-07T22:13:23.534Z,12.00
2018-08-07T22:15:51.058Z,11.33
2018-08-07T22:18:18.619Z,10.60
2018-08-07T22:20:46.189Z,11.87
2018-08-07T22:23:13.757Z,12.53
2018-08-07T22:25:41.213Z,11.80
2018-08-07T22:28:08.696Z,12.33
2018-08-07T22:30:36.185Z,11.43
2018-08-07T22:33:03.719Z,12.00
2018-08-07T22:35:31.254Z,11.73
2018-08-07T22:37:58.814Z,12.77
2018-08-07T22:40:26.312Z,12.63
2018-08-07T22:42:53.794Z,12.10
2018-08-07T22:45:21.280Z,12.10
2018-08-07T22:47:48.812Z,11.80
2018-08-07T22:50:17.484Z,11.20
2018-08-07T22:52:45.115Z,12.07
2018-08-07T22:55:15.187Z,11.90
2018-08-07T22:57:42.753Z,13.00
2018-08-07T23:00:18.480Z,11.73
2018-08-07T23:02:45.839Z,12.97
2018-08-07T23:05:14.225Z,13.53
2018-08-07T23:07:41.805Z,12.47
2018-08-07T23:10:11.382Z,13.13
2018-08-07T23:12:38.956Z,12.80
2018-08-07T23:15:09.384Z,14.13
2018-08-07T23:17:36.947Z,12.83
2018-08-07T23:20:04.948Z,14.30
2018-08-07T23:22:32.484Z,13.20
2018-08-07T23:24:59.940Z,13.00
2018-08-07T23:27:27.419Z,13.67
2018-08-07T23:29:54.907Z,13.40
2018-08-07T23:32:22.395Z,12.17
2018-08-07T23:34:49.876Z,12.90
2018-08-07T23:37:17.334Z,12.30
2018-08-07T23:39:44.790Z,11.60
2018-08-07T23:42:12.435Z,11.30
2018-08-07T23:44:40.000Z,13.30
2018-08-07T23:47:07.476Z,12.43
2018-08-07T23:49:34.949Z,12.27
2018-08-07T23:52:02.467Z,11.53
2018-08-07T23:54:30.004Z,12.10
2018-08-07T23:56:57.570Z,13.47
2018-08-07T23:59:25.007Z,12.67
